createdAt,value
2024-03-19T00:13:36.633Z,1005.804
2024-03-19T00:43:54.787Z,1005.925
2024-03-19T01:14:12.838Z,1005.832
2024-03-19T01:44:30.936Z,1005.716
2024-03-19T02:14:48.848Z,1005.586
2024-03-19T02:45:06.918Z,1005.5160000000001
2024-03-19T03:15:25.070Z,1005.6080000000001
2024-03-19T03:45:42.223Z,1005.664
2024-03-19T04:16:01.552Z,1005.825
2024-03-19T04:46:20.988Z,1005.927
2024-03-19T05:16:40.878Z,1005.992
2024-03-19T05:46:59.145Z,1006.301
2024-03-19T06:17:17.386Z,1006.433
2024-03-19T06:47:36.246Z,1006.6610000000001
2024-03-19T07:17:54.904Z,1006.873
2024-03-19T07:48:14.169Z,1007.178
2024-03-19T08:18:32.233Z,1007.439
2024-03-19T08:48:53.134Z,1007.623
2024-03-19T09:19:13.999Z,1007.711
2024-03-19T09:49:35.198Z,1007.8560000000001
2024-03-19T10:19:54.057Z,1007.85
2024-03-19T10:50:12.375Z,1007.8919999999999
2024-03-19T11:20:31.906Z,1007.837
2024-03-19T11:50:50.588Z,1007.7130000000001
2024-03-19T12:51:27.266Z,1007.4069999999999
2024-03-19T13:21:49.414Z,1007.502
2024-03-19T13:52:09.588Z,1007.2819999999999
2024-03-19T14:22:27.420Z,1007.062
2024-03-19T14:52:43.440Z,1006.915
2024-03-19T15:22:59.703Z,1006.755
2024-03-19T16:23:35.105Z,1006.806
2024-03-19T16:53:52.497Z,1006.802
2024-03-19T17:24:09.792Z,1007.193
2024-03-19T17:54:27.486Z,1007.232
2024-03-19T18:24:44.124Z,1007.564
2024-03-19T18:55:02.053Z,1007.633
2024-03-19T19:25:19.336Z,1007.85
2024-03-19T19:55:37.567Z,1007.8739999999999
2024-03-19T20:25:55.703Z,1007.752
2024-03-19T20:56:15.251Z,1007.8610000000001
2024-03-19T21:26:34.779Z,1007.7669999999999
2024-03-19T21:56:53.986Z,1007.7739999999999
2024-03-19T22:27:11.872Z,1007.674
2024-03-19T22:57:28.426Z,1007.623
2024-03-19T23:27:44.617Z,1007.4689999999999
2024-03-19T23:58:02.848Z,1007.296
